Goleniow, Poland
Current Conditions -  °F | °C
As of 1:30 PM on Thursday 27 Nov 2014 (Local Time) from EPSC Reporting Station
Few Clouds Few Clouds  
Wind Chill: 34°   Ceiling: Unl
Heat Index: 41°   Visibility: 5mi
Dew Point: 34°   Wind: 12mph
Humidity: 76%   Direction: 100°E
Pressure: 30.12"   Gusts: NA
Location:  53.57°N, 14.82°E
Report Text: EPSC 271130Z 10010KT 080V150 8000 FEW013 05/01 Q1020
Loading
Personal Weather Stations






























Interactive Weather Map New forecast layout! Learn more

10-Day Weather Forecast

Advertisements
Track Severe Weather on mobile